sensor_id;sensor_type;location;lat;lon;timestamp;P1;durP1;ratioP1;P2;durP2;ratioP2
13425;SDS011;6785;57.918;12.530;2024-01-16T06:16:56;2.80;;;2.10;;
13425;SDS011;6785;57.918;12.530;2024-01-16T06:19:23;6.80;;;2.43;;
13425;SDS011;6785;57.918;12.530;2024-01-16T06:21:50;3.17;;;2.30;;
13425;SDS011;6785;57.918;12.530;2024-01-16T06:24:17;2.13;;;1.93;;
13425;SDS011;6785;57.918;12.530;2024-01-16T06:26:43;4.90;;;2.60;;
13425;SDS011;6785;57.918;12.530;2024-01-16T06:29:10;8.80;;;3.20;;
13425;SDS011;6785;57.918;12.530;2024-01-16T06:31:37;10.07;;;5.10;;
13425;SDS011;6785;57.918;12.530;2024-01-16T06:34:05;11.10;;;4.77;;
13425;SDS011;6785;57.918;12.530;2024-01-16T06:36:33;9.87;;;4.23;;
13425;SDS011;6785;57.918;12.530;2024-01-16T06:39:00;9.30;;;3.90;;
13425;SDS011;6785;57.918;12.530;2024-01-16T06:41:27;5.93;;;3.47;;
13425;SDS011;6785;57.918;12.530;2024-01-16T06:43:54;7.87;;;4.17;;
13425;SDS011;6785;57.918;12.530;2024-01-16T06:46:21;9.17;;;3.50;;
13425;SDS011;6785;57.918;12.530;2024-01-16T06:48:48;9.57;;;4.17;;
13425;SDS011;6785;57.918;12.530;2024-01-16T06:51:16;5.17;;;3.53;;
13425;SDS011;6785;57.918;12.530;2024-01-16T06:53:43;8.77;;;3.40;;
13425;SDS011;6785;57.918;12.530;2024-01-16T06:56:10;8.37;;;4.77;;
13425;SDS011;6785;57.918;12.530;2024-01-16T06:58:36;6.73;;;3.47;;
13425;SDS011;6785;57.918;12.530;2024-01-16T07:01:03;11.03;;;3.50;;
13425;SDS011;6785;57.918;12.530;2024-01-16T07:03:30;6.60;;;3.93;;
13425;SDS011;6785;57.918;12.530;2024-01-16T07:05:57;8.10;;;2.93;;
13425;SDS011;6785;57.918;12.530;2024-01-16T07:08:25;9.10;;;2.57;;
13425;SDS011;6785;57.918;12.530;2024-01-16T07:10:52;6.87;;;3.03;;
13425;SDS011;6785;57.918;12.530;2024-01-16T07:13:19;5.37;;;3.33;;
13425;SDS011;6785;57.918;12.530;2024-01-16T08:17:22;6.10;;;3.23;;
13425;SDS011;6785;57.918;12.530;2024-01-16T08:19:49;5.30;;;2.60;;
13425;SDS011;6785;57.918;12.530;2024-01-16T08:22:16;5.60;;;3.90;;
13425;SDS011;6785;57.918;12.530;2024-01-16T08:24:43;6.67;;;4.13;;
13425;SDS011;6785;57.918;12.530;2024-01-16T08:27:09;4.73;;;4.03;;
13425;SDS011;6785;57.918;12.530;2024-01-16T08:29:36;5.67;;;3.40;;
13425;SDS011;6785;57.918;12.530;2024-01-16T08:32:03;5.67;;;2.50;;
13425;SDS011;6785;57.918;12.530;2024-01-16T08:34:31;5.97;;;3.23;;
13425;SDS011;6785;57.918;12.530;2024-01-16T08:36:58;3.90;;;2.50;;
13425;SDS011;6785;57.918;12.530;2024-01-16T08:39:25;3.20;;;2.17;;
13425;SDS011;6785;57.918;12.530;2024-01-16T08:41:53;2.83;;;2.13;;
13425;SDS011;6785;57.918;12.530;2024-01-16T08:44:20;4.13;;;2.83;;
13425;SDS011;6785;57.918;12.530;2024-01-16T08:46:47;7.50;;;3.53;;
13425;SDS011;6785;57.918;12.530;2024-01-16T08:49:13;9.23;;;4.60;;
13425;SDS011;6785;57.918;12.530;2024-01-16T08:51:41;9.43;;;4.83;;
13425;SDS011;6785;57.918;12.530;2024-01-16T08:54:08;15.83;;;6.00;;
13425;SDS011;6785;57.918;12.530;2024-01-16T08:56:35;7.27;;;4.60;;
13425;SDS011;6785;57.918;12.530;2024-01-16T08:59:02;25.53;;;5.43;;
13425;SDS011;6785;57.918;12.530;2024-01-16T09:01:29;13.50;;;6.20;;
13425;SDS011;6785;57.918;12.530;2024-01-16T09:03:55;18.60;;;7.40;;
13425;SDS011;6785;57.918;12.530;2024-01-16T09:06:22;10.20;;;5.50;;
13425;SDS011;6785;57.918;12.530;2024-01-16T09:08:50;13.07;;;6.13;;
13425;SDS011;6785;57.918;12.530;2024-01-16T09:11:17;13.30;;;6.03;;
13425;SDS011;6785;57.918;12.530;2024-01-16T09:13:44;18.90;;;7.53;;
13425;SDS011;6785;57.918;12.530;2024-01-16T09:16:17;14.73;;;7.07;;
13425;SDS011;6785;57.918;12.530;2024-01-16T09:18:43;12.87;;;6.67;;
13425;SDS011;6785;57.918;12.530;2024-01-16T09:21:11;16.70;;;6.63;;
13425;SDS011;6785;57.918;12.530;2024-01-16T09:23:37;15.50;;;7.07;;
13425;SDS011;6785;57.918;12.530;2024-01-16T09:26:05;8.70;;;5.60;;
13425;SDS011;6785;57.918;12.530;2024-01-16T09:28:32;17.40;;;6.50;;
13425;SDS011;6785;57.918;12.530;2024-01-16T09:30:59;16.53;;;8.80;;
13425;SDS011;6785;57.918;12.530;2024-01-16T09:33:26;18.43;;;8.10;;
13425;SDS011;6785;57.918;12.530;2024-01-16T09:35:53;12.33;;;5.80;;
13425;SDS011;6785;57.918;12.530;2024-01-16T09:38:19;12.27;;;6.27;;
13425;SDS011;6785;57.918;12.530;2024-01-16T09:40:46;11.30;;;5.80;;
13425;SDS011;6785;57.918;12.530;2024-01-16T09:43:31;11.83;;;6.57;;
13425;SDS011;6785;57.918;12.530;2024-01-16T09:46:00;9.60;;;5.70;;
13425;SDS011;6785;57.918;12.530;2024-01-16T09:48:27;11.03;;;5.13;;
13425;SDS011;6785;57.918;12.530;2024-01-16T09:50:55;8.47;;;4.80;;
13425;SDS011;6785;57.918;12.530;2024-01-16T09:53:34;9.43;;;4.53;;
13425;SDS011;6785;57.918;12.530;2024-01-16T09:56:02;12.77;;;5.17;;
13425;SDS011;6785;57.918;12.530;2024-01-16T09:58:32;8.50;;;5.20;;
13425;SDS011;6785;57.918;12.530;2024-01-16T10:01:02;17.33;;;6.40;;
13425;SDS011;6785;57.918;12.530;2024-01-16T10:03:30;9.93;;;6.47;;
13425;SDS011;6785;57.918;12.530;2024-01-16T10:05:57;16.23;;;7.03;;
13425;SDS011;6785;57.918;12.530;2024-01-16T10:08:32;17.23;;;8.03;;
13425;SDS011;6785;57.918;12.530;2024-01-16T10:10:59;16.87;;;8.67;;
13425;SDS011;6785;57.918;12.530;2024-01-16T10:13:26;15.73;;;8.27;;
13425;SDS011;6785;57.918;12.530;2024-01-16T10:15:55;14.63;;;7.57;;
13425;SDS011;6785;57.918;12.530;2024-01-16T10:18:23;14.93;;;7.07;;
13425;SDS011;6785;57.918;12.530;2024-01-16T10:20:50;14.83;;;6.50;;
13425;SDS011;6785;57.918;12.530;2024-01-16T10:23:24;13.60;;;6.63;;
13425;SDS011;6785;57.918;12.530;2024-01-16T10:26:07;8.27;;;5.20;;
13425;SDS011;6785;57.918;12.530;2024-01-16T10:28:34;12.47;;;6.70;;
13425;SDS011;6785;57.918;12.530;2024-01-16T10:31:03;15.63;;;7.53;;
13425;SDS011;6785;57.918;12.530;2024-01-16T10:33:30;22.83;;;8.57;;
13425;SDS011;6785;57.918;12.530;2024-01-16T10:36:10;16.63;;;7.93;;
13425;SDS011;6785;57.918;12.530;2024-01-16T10:38:38;12.17;;;7.60;;
13425;SDS011;6785;57.918;12.530;2024-01-16T10:41:09;17.27;;;8.30;;
13425;SDS011;6785;57.918;12.530;2024-01-16T10:43:37;12.53;;;6.37;;
13425;SDS011;6785;57.918;12.530;2024-01-16T10:46:10;10.23;;;4.77;;
13425;SDS011;6785;57.918;12.530;2024-01-16T10:48:39;8.90;;;4.80;;
13425;SDS011;6785;57.918;12.530;2024-01-16T10:51:09;6.67;;;3.00;;
13425;SDS011;6785;57.918;12.530;2024-01-16T10:53:37;5.00;;;3.13;;
13425;SDS011;6785;57.918;12.530;2024-01-16T10:56:08;3.90;;;2.30;;
13425;SDS011;6785;57.918;12.530;2024-01-16T10:58:38;4.37;;;2.57;;
13425;SDS011;6785;57.918;12.530;2024-01-16T11:01:10;8.87;;;5.93;;
13425;SDS011;6785;57.918;12.530;2024-01-16T11:03:40;12.90;;;5.67;;
13425;SDS011;6785;57.918;12.530;2024-01-16T11:06:12;10.30;;;5.20;;
13425;SDS011;6785;57.918;12.530;2024-01-16T11:08:42;11.17;;;6.40;;
13425;SDS011;6785;57.918;12.530;2024-01-16T11:11:11;11.07;;;5.80;;
13425;SDS011;6785;57.918;12.530;2024-01-16T11:13:39;12.30;;;6.27;;
13425;SDS011;6785;57.918;12.530;2024-01-16T11:16:11;13.20;;;5.70;;
13425;SDS011;6785;57.918;12.530;2024-01-16T11:18:38;13.20;;;7.17;;
13425;SDS011;6785;57.918;12.530;2024-01-16T11:21:07;16.50;;;8.77;;
13425;SDS011;6785;57.918;12.530;2024-01-16T11:23:35;14.47;;;7.43;;
13425;SDS011;6785;57.918;12.530;2024-01-16T11:28:50;13.57;;;6.53;;
13425;SDS011;6785;57.918;12.530;2024-01-16T11:31:28;9.37;;;6.50;;
13425;SDS011;6785;57.918;12.530;2024-01-16T11:33:56;11.37;;;6.63;;
13425;SDS011;6785;57.918;12.530;2024-01-16T11:36:49;13.93;;;7.23;;
13425;SDS011;6785;57.918;12.530;2024-01-16T11:39:21;12.83;;;7.33;;
13425;SDS011;6785;57.918;12.530;2024-01-16T11:41:53;19.60;;;9.27;;
13425;SDS011;6785;57.918;12.530;2024-01-16T11:47:17;27.40;;;13.27;;
13425;SDS011;6785;57.918;12.530;2024-01-16T11:49:45;15.90;;;8.77;;
13425;SDS011;6785;57.918;12.530;2024-01-16T11:52:12;20.50;;;10.93;;
13425;SDS011;6785;57.918;12.530;2024-01-16T11:54:39;13.23;;;8.50;;
13425;SDS011;6785;57.918;12.530;2024-01-16T12:00:02;15.60;;;9.23;;
13425;SDS011;6785;57.918;12.530;2024-01-16T12:02:51;18.97;;;9.33;;
13425;SDS011;6785;57.918;12.530;2024-01-16T12:05:19;19.97;;;8.67;;
13425;SDS011;6785;57.918;12.530;2024-01-16T12:07:47;15.93;;;8.97;;
13425;SDS011;6785;57.918;12.530;2024-01-16T12:10:20;17.43;;;8.37;;
13425;SDS011;6785;57.918;12.530;2024-01-16T12:12:49;18.53;;;8.27;;
13425;SDS011;6785;57.918;12.530;2024-01-16T12:15:17;13.97;;;7.47;;
13425;SDS011;6785;57.918;12.530;2024-01-16T12:17:56;16.63;;;8.37;;
13425;SDS011;6785;57.918;12.530;2024-01-16T12:20:25;19.20;;;8.53;;
13425;SDS011;6785;57.918;12.530;2024-01-16T12:22:53;16.77;;;8.77;;
13425;SDS011;6785;57.918;12.530;2024-01-16T12:25:21;25.57;;;9.17;;
13425;SDS011;6785;57.918;12.530;2024-01-16T12:27:53;20.60;;;9.40;;
13425;SDS011;6785;57.918;12.530;2024-01-16T12:30:21;22.13;;;11.13;;
13425;SDS011;6785;57.918;12.530;2024-01-16T12:32:49;18.80;;;10.33;;
13425;SDS011;6785;57.918;12.530;2024-01-16T12:35:20;18.73;;;10.37;;
13425;SDS011;6785;57.918;12.530;2024-01-16T12:37:57;18.13;;;8.60;;
13425;SDS011;6785;57.918;12.530;2024-01-16T12:40:25;19.83;;;8.47;;
13425;SDS011;6785;57.918;12.530;2024-01-16T12:42:52;17.50;;;7.73;;
13425;SDS011;6785;57.918;12.530;2024-01-16T12:45:19;14.83;;;6.77;;
13425;SDS011;6785;57.918;12.530;2024-01-16T12:47:49;8.43;;;5.13;;
13425;SDS011;6785;57.918;12.530;2024-01-16T12:50:18;4.17;;;1.97;;
13425;SDS011;6785;57.918;12.530;2024-01-16T12:53:00;8.83;;;3.83;;
13425;SDS011;6785;57.918;12.530;2024-01-16T12:55:27;4.77;;;2.10;;
13425;SDS011;6785;57.918;12.530;2024-01-16T13:00:39;3.07;;;2.13;;
13425;SDS011;6785;57.918;12.530;2024-01-16T13:03:06;3.67;;;2.40;;
13425;SDS011;6785;57.918;12.530;2024-01-16T13:05:35;3.80;;;2.53;;
13425;SDS011;6785;57.918;12.530;2024-01-16T13:08:02;5.17;;;2.87;;
13425;SDS011;6785;57.918;12.530;2024-01-16T13:10:29;6.17;;;3.50;;
13425;SDS011;6785;57.918;12.530;2024-01-16T13:13:10;5.07;;;2.80;;
13425;SDS011;6785;57.918;12.530;2024-01-16T13:15:38;5.70;;;2.53;;
13425;SDS011;6785;57.918;12.530;2024-01-16T13:18:16;24.17;;;4.00;;
13425;SDS011;6785;57.918;12.530;2024-01-16T13:20:46;3.50;;;2.27;;
13425;SDS011;6785;57.918;12.530;2024-01-16T13:23:13;5.00;;;2.27;;
13425;SDS011;6785;57.918;12.530;2024-01-16T13:25:41;3.90;;;2.10;;
13425;SDS011;6785;57.918;12.530;2024-01-16T13:28:09;3.80;;;2.33;;
13425;SDS011;6785;57.918;12.530;2024-01-16T13:30:36;3.77;;;2.57;;
13425;SDS011;6785;57.918;12.530;2024-01-16T13:33:03;4.40;;;2.50;;
13425;SDS011;6785;57.918;12.530;2024-01-16T13:35:30;4.97;;;2.77;;
13425;SDS011;6785;57.918;12.530;2024-01-16T13:37:59;4.57;;;2.63;;
13425;SDS011;6785;57.918;12.530;2024-01-16T13:40:26;6.47;;;2.63;;
13425;SDS011;6785;57.918;12.530;2024-01-16T13:42:53;5.53;;;2.63;;
13425;SDS011;6785;57.918;12.530;2024-01-16T13:45:19;9.10;;;3.33;;
13425;SDS011;6785;57.918;12.530;2024-01-16T13:47:46;4.87;;;3.17;;
13425;SDS011;6785;57.918;12.530;2024-01-16T13:50:13;5.93;;;3.63;;
13425;SDS011;6785;57.918;12.530;2024-01-16T13:52:40;4.70;;;2.80;;
13425;SDS011;6785;57.918;12.530;2024-01-16T13:55:08;5.93;;;3.13;;
13425;SDS011;6785;57.918;12.530;2024-01-16T13:57:36;4.93;;;2.70;;
13425;SDS011;6785;57.918;12.530;2024-01-16T14:00:03;9.03;;;2.47;;
13425;SDS011;6785;57.918;12.530;2024-01-16T14:02:31;3.33;;;1.80;;
13425;SDS011;6785;57.918;12.530;2024-01-16T14:04:59;2.83;;;1.63;;
13425;SDS011;6785;57.918;12.530;2024-01-16T14:07:26;4.50;;;1.57;;
13425;SDS011;6785;57.918;12.530;2024-01-16T14:09:53;1.37;;;1.27;;
13425;SDS011;6785;57.918;12.530;2024-01-16T14:12:23;3.53;;;1.30;;
13425;SDS011;6785;57.918;12.530;2024-01-16T14:14:50;2.20;;;1.43;;
13425;SDS011;6785;57.918;12.530;2024-01-16T17:25:35;3.23;;;2.30;;
13425;SDS011;6785;57.918;12.530;2024-01-16T17:31:11;4.27;;;1.90;;
13425;SDS011;6785;57.918;12.530;2024-01-16T17:33:39;2.13;;;1.40;;
13425;SDS011;6785;57.918;12.530;2024-01-16T17:36:07;3.03;;;2.00;;
13425;SDS011;6785;57.918;12.530;2024-01-16T17:38:37;2.43;;;2.00;;
13425;SDS011;6785;57.918;12.530;2024-01-16T17:41:05;4.87;;;2.60;;
13425;SDS011;6785;57.918;12.530;2024-01-16T17:43:32;4.13;;;2.77;;
13425;SDS011;6785;57.918;12.530;2024-01-16T17:45:59;3.67;;;2.10;;
13425;SDS011;6785;57.918;12.530;2024-01-16T17:48:26;2.90;;;2.03;;
13425;SDS011;6785;57.918;12.530;2024-01-16T17:50:55;1.67;;;1.50;;
13425;SDS011;6785;57.918;12.530;2024-01-16T17:53:22;1.60;;;1.50;;
13425;SDS011;6785;57.918;12.530;2024-01-16T17:55:49;2.17;;;1.60;;
13425;SDS011;6785;57.918;12.530;2024-01-16T17:58:15;2.73;;;2.20;;
13425;SDS011;6785;57.918;12.530;2024-01-16T18:00:46;3.83;;;2.80;;
13425;SDS011;6785;57.918;12.530;2024-01-16T18:03:14;5.23;;;4.37;;
13425;SDS011;6785;57.918;12.530;2024-01-16T18:05:43;3.83;;;2.07;;
13425;SDS011;6785;57.918;12.530;2024-01-16T18:08:11;3.13;;;2.37;;
13425;SDS011;6785;57.918;12.530;2024-01-16T18:10:38;3.53;;;2.40;;
13425;SDS011;6785;57.918;12.530;2024-01-16T18:13:04;5.17;;;2.60;;
13425;SDS011;6785;57.918;12.530;2024-01-16T18:15:31;3.23;;;1.80;;
13425;SDS011;6785;57.918;12.530;2024-01-16T18:17:59;3.20;;;1.70;;
13425;SDS011;6785;57.918;12.530;2024-01-16T18:20:26;3.77;;;2.70;;
13425;SDS011;6785;57.918;12.530;2024-01-16T18:22:56;4.30;;;2.30;;
13425;SDS011;6785;57.918;12.530;2024-01-16T18:25:25;2.37;;;2.00;;
13425;SDS011;6785;57.918;12.530;2024-01-16T18:27:51;3.13;;;2.47;;
13425;SDS011;6785;57.918;12.530;2024-01-16T18:30:20;1.93;;;1.60;;
13425;SDS011;6785;57.918;12.530;2024-01-16T18:32:51;2.57;;;1.80;;
13425;SDS011;6785;57.918;12.530;2024-01-16T18:35:17;3.33;;;1.50;;
13425;SDS011;6785;57.918;12.530;2024-01-16T18:37:44;2.60;;;1.67;;
13425;SDS011;6785;57.918;12.530;2024-01-16T18:40:12;5.17;;;1.70;;
13425;SDS011;6785;57.918;12.530;2024-01-16T18:42:42;4.30;;;1.83;;
13425;SDS011;6785;57.918;12.530;2024-01-16T18:45:09;5.20;;;2.10;;
13425;SDS011;6785;57.918;12.530;2024-01-16T18:47:37;2.70;;;1.80;;
13425;SDS011;6785;57.918;12.530;2024-01-16T18:50:04;3.37;;;2.10;;
13425;SDS011;6785;57.918;12.530;2024-01-16T18:52:34;3.23;;;2.20;;
13425;SDS011;6785;57.918;12.530;2024-01-16T18:55:03;2.97;;;1.93;;
13425;SDS011;6785;57.918;12.530;2024-01-16T18:57:34;5.10;;;1.83;;
13425;SDS011;6785;57.918;12.530;2024-01-16T19:00:04;2.73;;;1.73;;
13425;SDS011;6785;57.918;12.530;2024-01-16T19:02:37;6.93;;;1.90;;
13425;SDS011;6785;57.918;12.530;2024-01-16T19:05:04;2.93;;;2.03;;
13425;SDS011;6785;57.918;12.530;2024-01-16T19:07:32;5.37;;;2.23;;
13425;SDS011;6785;57.918;12.530;2024-01-16T19:09:59;6.17;;;2.73;;
13425;SDS011;6785;57.918;12.530;2024-01-16T19:12:26;2.67;;;2.20;;
13425;SDS011;6785;57.918;12.530;2024-01-16T19:14:53;6.80;;;2.73;;
13425;SDS011;6785;57.918;12.530;2024-01-16T19:17:23;3.27;;;2.27;;
13425;SDS011;6785;57.918;12.530;2024-01-16T19:19:51;5.83;;;2.73;;
13425;SDS011;6785;57.918;12.530;2024-01-16T19:22:17;4.63;;;2.10;;
13425;SDS011;6785;57.918;12.530;2024-01-16T19:24:45;4.40;;;2.47;;
13425;SDS011;6785;57.918;12.530;2024-01-16T19:27:12;3.23;;;2.27;;
13425;SDS011;6785;57.918;12.530;2024-01-16T19:29:38;6.17;;;2.17;;
13425;SDS011;6785;57.918;12.530;2024-01-16T19:32:06;10.17;;;2.43;;
13425;SDS011;6785;57.918;12.530;2024-01-16T19:34:34;4.73;;;2.40;;
13425;SDS011;6785;57.918;12.530;2024-01-16T19:37:00;6.43;;;2.70;;
13425;SDS011;6785;57.918;12.530;2024-01-16T19:39:28;3.97;;;2.53;;
13425;SDS011;6785;57.918;12.530;2024-01-16T19:41:57;8.23;;;3.03;;
13425;SDS011;6785;57.918;12.530;2024-01-16T19:44:24;6.90;;;2.40;;
13425;SDS011;6785;57.918;12.530;2024-01-16T19:46:51;3.53;;;2.53;;
13425;SDS011;6785;57.918;12.530;2024-01-16T19:49:18;4.30;;;3.13;;
13425;SDS011;6785;57.918;12.530;2024-01-16T19:51:46;6.27;;;2.83;;
13425;SDS011;6785;57.918;12.530;2024-01-16T19:54:13;4.50;;;2.77;;
13425;SDS011;6785;57.918;12.530;2024-01-16T19:56:40;4.67;;;2.40;;
13425;SDS011;6785;57.918;12.530;2024-01-16T19:59:07;8.43;;;2.70;;
13425;SDS011;6785;57.918;12.530;2024-01-16T20:01:35;4.37;;;2.77;;
13425;SDS011;6785;57.918;12.530;2024-01-16T20:04:02;6.63;;;2.47;;
13425;SDS011;6785;57.918;12.530;2024-01-16T20:06:30;4.57;;;3.00;;
13425;SDS011;6785;57.918;12.530;2024-01-16T20:08:58;6.30;;;3.80;;
13425;SDS011;6785;57.918;12.530;2024-01-16T20:11:30;6.80;;;3.00;;
13425;SDS011;6785;57.918;12.530;2024-01-16T20:13:58;8.93;;;3.10;;
13425;SDS011;6785;57.918;12.530;2024-01-16T20:16:26;9.90;;;3.03;;
13425;SDS011;6785;57.918;12.530;2024-01-16T20:18:54;3.80;;;2.50;;
13425;SDS011;6785;57.918;12.530;2024-01-16T20:21:22;5.80;;;2.47;;
13425;SDS011;6785;57.918;12.530;2024-01-16T20:23:49;3.90;;;2.57;;
13425;SDS011;6785;57.918;12.530;2024-01-16T20:26:18;4.03;;;2.30;;
13425;SDS011;6785;57.918;12.530;2024-01-16T20:28:45;4.63;;;2.70;;
13425;SDS011;6785;57.918;12.530;2024-01-16T20:31:12;3.73;;;2.73;;
13425;SDS011;6785;57.918;12.530;2024-01-16T20:33:39;3.77;;;2.37;;
13425;SDS011;6785;57.918;12.530;2024-01-16T20:36:10;5.53;;;2.30;;
13425;SDS011;6785;57.918;12.530;2024-01-16T20:38:39;3.60;;;2.70;;
13425;SDS011;6785;57.918;12.530;2024-01-16T20:41:06;5.30;;;3.20;;
13425;SDS011;6785;57.918;12.530;2024-01-16T20:43:34;3.90;;;2.73;;
13425;SDS011;6785;57.918;12.530;2024-01-16T20:46:02;5.17;;;3.50;;
13425;SDS011;6785;57.918;12.530;2024-01-16T20:48:29;7.67;;;3.00;;
13425;SDS011;6785;57.918;12.530;2024-01-16T20:50:56;3.87;;;2.83;;
13425;SDS011;6785;57.918;12.530;2024-01-16T20:53:24;6.50;;;2.70;;
13425;SDS011;6785;57.918;12.530;2024-01-16T20:55:52;3.93;;;2.80;;
13425;SDS011;6785;57.918;12.530;2024-01-16T20:58:19;5.97;;;2.50;;
13425;SDS011;6785;57.918;12.530;2024-01-16T21:00:47;4.00;;;2.53;;
13425;SDS011;6785;57.918;12.530;2024-01-16T21:03:14;6.13;;;2.50;;
13425;SDS011;6785;57.918;12.530;2024-01-16T21:05:43;4.63;;;2.80;;
13425;SDS011;6785;57.918;12.530;2024-01-16T21:08:11;5.50;;;2.83;;
13425;SDS011;6785;57.918;12.530;2024-01-16T21:10:38;5.60;;;3.03;;
13425;SDS011;6785;57.918;12.530;2024-01-16T21:13:06;5.93;;;2.70;;
13425;SDS011;6785;57.918;12.530;2024-01-16T21:15:34;4.07;;;3.03;;
13425;SDS011;6785;57.918;12.530;2024-01-16T21:18:02;3.43;;;2.23;;
13425;SDS011;6785;57.918;12.530;2024-01-16T21:20:30;4.67;;;2.50;;
13425;SDS011;6785;57.918;12.530;2024-01-16T21:22:56;6.33;;;2.77;;
13425;SDS011;6785;57.918;12.530;2024-01-16T21:25:23;5.37;;;2.70;;
13425;SDS011;6785;57.918;12.530;2024-01-16T21:27:50;5.00;;;2.90;;
13425;SDS011;6785;57.918;12.530;2024-01-16T21:30:17;3.80;;;2.90;;
13425;SDS011;6785;57.918;12.530;2024-01-16T21:32:44;2.77;;;2.53;;
13425;SDS011;6785;57.918;12.530;2024-01-16T21:35:14;4.20;;;2.63;;
13425;SDS011;6785;57.918;12.530;2024-01-16T21:37:42;3.63;;;2.30;;
13425;SDS011;6785;57.918;12.530;2024-01-16T21:40:10;3.27;;;2.67;;
13425;SDS011;6785;57.918;12.530;2024-01-16T21:42:38;4.27;;;2.67;;
13425;SDS011;6785;57.918;12.530;2024-01-16T21:45:06;4.97;;;2.97;;
13425;SDS011;6785;57.918;12.530;2024-01-16T21:47:33;4.57;;;2.93;;
13425;SDS011;6785;57.918;12.530;2024-01-16T21:49:59;4.30;;;2.57;;
13425;SDS011;6785;57.918;12.530;2024-01-16T21:52:27;6.63;;;3.13;;
13425;SDS011;6785;57.918;12.530;2024-01-16T21:54:54;4.03;;;2.97;;
13425;SDS011;6785;57.918;12.530;2024-01-16T21:57:21;3.70;;;2.33;;
13425;SDS011;6785;57.918;12.530;2024-01-16T21:59:48;6.50;;;3.03;;
13425;SDS011;6785;57.918;12.530;2024-01-16T22:02:16;4.40;;;3.07;;
13425;SDS011;6785;57.918;12.530;2024-01-16T22:04:43;3.77;;;2.73;;
13425;SDS011;6785;57.918;12.530;2024-01-16T22:07:09;4.50;;;2.90;;
13425;SDS011;6785;57.918;12.530;2024-01-16T22:09:44;4.50;;;2.90;;
13425;SDS011;6785;57.918;12.530;2024-01-16T22:12:34;4.07;;;3.10;;
13425;SDS011;6785;57.918;12.530;2024-01-16T22:15:39;4.47;;;3.30;;
13425;SDS011;6785;57.918;12.530;2024-01-16T22:18:16;7.67;;;3.50;;
13425;SDS011;6785;57.918;12.530;2024-01-16T22:21:12;9.43;;;3.37;;
13425;SDS011;6785;57.918;12.530;2024-01-16T22:23:48;4.13;;;2.67;;
13425;SDS011;6785;57.918;12.530;2024-01-16T22:26:41;6.30;;;3.27;;
13425;SDS011;6785;57.918;12.530;2024-01-16T22:30:20;5.13;;;2.80;;
13425;SDS011;6785;57.918;12.530;2024-01-16T22:35:54;5.73;;;3.00;;
13425;SDS011;6785;57.918;12.530;2024-01-16T22:47:31;5.73;;;3.33;;
13425;SDS011;6785;57.918;12.530;2024-01-16T22:50:13;4.37;;;2.93;;
13425;SDS011;6785;57.918;12.530;2024-01-16T22:53:27;5.73;;;3.60;;
13425;SDS011;6785;57.918;12.530;2024-01-16T22:56:29;4.73;;;3.17;;
13425;SDS011;6785;57.918;12.530;2024-01-16T22:59:36;3.50;;;2.80;;
13425;SDS011;6785;57.918;12.530;2024-01-16T23:02:04;8.17;;;3.17;;
13425;SDS011;6785;57.918;12.530;2024-01-16T23:04:32;4.47;;;3.10;;
13425;SDS011;6785;57.918;12.530;2024-01-16T23:07:01;4.03;;;2.70;;
13425;SDS011;6785;57.918;12.530;2024-01-16T23:09:28;4.63;;;3.03;;
13425;SDS011;6785;57.918;12.530;2024-01-16T23:11:55;4.03;;;2.83;;
13425;SDS011;6785;57.918;12.530;2024-01-16T23:14:23;6.23;;;2.87;;
13425;SDS011;6785;57.918;12.530;2024-01-16T23:16:52;6.20;;;3.53;;
13425;SDS011;6785;57.918;12.530;2024-01-16T23:19:19;7.20;;;3.00;;
13425;SDS011;6785;57.918;12.530;2024-01-16T23:21:46;5.63;;;3.20;;
13425;SDS011;6785;57.918;12.530;2024-01-16T23:24:13;5.07;;;3.30;;
13425;SDS011;6785;57.918;12.530;2024-01-16T23:26:41;7.27;;;3.23;;
13425;SDS011;6785;57.918;12.530;2024-01-16T23:29:08;4.27;;;3.00;;
13425;SDS011;6785;57.918;12.530;2024-01-16T23:31:35;4.03;;;2.53;;
13425;SDS011;6785;57.918;12.530;2024-01-16T23:34:03;12.43;;;3.77;;
13425;SDS011;6785;57.918;12.530;2024-01-16T23:36:30;4.60;;;3.53;;
13425;SDS011;6785;57.918;12.530;2024-01-16T23:38:58;6.77;;;3.20;;
13425;SDS011;6785;57.918;12.530;2024-01-16T23:41:24;8.47;;;3.70;;
13425;SDS011;6785;57.918;12.530;2024-01-16T23:43:53;5.63;;;3.50;;
13425;SDS011;6785;57.918;12.530;2024-01-16T23:46:21;4.43;;;3.00;;
13425;SDS011;6785;57.918;12.530;2024-01-16T23:48:47;5.87;;;3.60;;
13425;SDS011;6785;57.918;12.530;2024-01-16T23:51:15;7.23;;;3.47;;
13425;SDS011;6785;57.918;12.530;2024-01-16T23:53:42;3.17;;;2.83;;
13425;SDS011;6785;57.918;12.530;2024-01-16T23:56:09;5.47;;;3.43;;
13425;SDS011;6785;57.918;12.530;2024-01-16T23:58:36;4.57;;;3.27;;
